sensor_id;sensor_type;location;lat;lon;timestamp;P1;durP1;ratioP1;P2;durP2;ratioP2
70455;SDS011;57916;51.996;5.180;2023-03-01T00:01:25;15.15;;;10.45;;
70455;SDS011;57916;51.996;5.180;2023-03-01T00:03:54;15.55;;;10.35;;
70455;SDS011;57916;51.996;5.180;2023-03-01T00:06:22;15.75;;;10.35;;
70455;SDS011;57916;51.996;5.180;2023-03-01T00:08:49;15.95;;;10.18;;
70455;SDS011;57916;51.996;5.180;2023-03-01T00:11:26;18.02;;;10.40;;
70455;SDS011;57916;51.996;5.180;2023-03-01T00:13:56;13.02;;;10.02;;
70455;SDS011;57916;51.996;5.180;2023-03-01T00:16:28;12.95;;;9.85;;
70455;SDS011;57916;51.996;5.180;2023-03-01T00:18:58;17.45;;;10.00;;
70455;SDS011;57916;51.996;5.180;2023-03-01T00:21:25;15.23;;;9.90;;
70455;SDS011;57916;51.996;5.180;2023-03-01T00:23:53;14.18;;;9.90;;
70455;SDS011;57916;51.996;5.180;2023-03-01T00:26:20;15.53;;;10.10;;
70455;SDS011;57916;51.996;5.180;2023-03-01T00:28:48;15.65;;;9.85;;
70455;SDS011;57916;51.996;5.180;2023-03-01T00:31:18;14.30;;;9.90;;
70455;SDS011;57916;51.996;5.180;2023-03-01T00:33:47;16.63;;;10.13;;
70455;SDS011;57916;51.996;5.180;2023-03-01T00:36:14;17.38;;;10.25;;
70455;SDS011;57916;51.996;5.180;2023-03-01T00:38:43;16.08;;;10.02;;
70455;SDS011;57916;51.996;5.180;2023-03-01T00:41:12;15.60;;;10.45;;
70455;SDS011;57916;51.996;5.180;2023-03-01T00:43:41;19.27;;;11.05;;
70455;SDS011;57916;51.996;5.180;2023-03-01T00:46:09;15.40;;;10.38;;
70455;SDS011;57916;51.996;5.180;2023-03-01T00:48:38;15.60;;;10.00;;
70455;SDS011;57916;51.996;5.180;2023-03-01T00:53:32;17.97;;;11.10;;
70455;SDS011;57916;51.996;5.180;2023-03-01T00:55:59;19.20;;;11.40;;
70455;SDS011;57916;51.996;5.180;2023-03-01T00:58:26;15.90;;;10.18;;
70455;SDS011;57916;51.996;5.180;2023-03-01T01:00:53;18.13;;;10.43;;
70455;SDS011;57916;51.996;5.180;2023-03-01T01:03:20;17.55;;;10.57;;
70455;SDS011;57916;51.996;5.180;2023-03-01T01:05:47;15.60;;;10.70;;
70455;SDS011;57916;51.996;5.180;2023-03-01T01:08:14;14.40;;;10.43;;
70455;SDS011;57916;51.996;5.180;2023-03-01T01:10:43;14.30;;;10.07;;
70455;SDS011;57916;51.996;5.180;2023-03-01T01:13:11;16.25;;;10.20;;
70455;SDS011;57916;51.996;5.180;2023-03-01T01:15:38;15.02;;;10.63;;
70455;SDS011;57916;51.996;5.180;2023-03-01T01:18:05;19.73;;;10.30;;
70455;SDS011;57916;51.996;5.180;2023-03-01T01:20:32;15.15;;;10.57;;
70455;SDS011;57916;51.996;5.180;2023-03-01T01:23:01;15.25;;;10.93;;
70455;SDS011;57916;51.996;5.180;2023-03-01T01:25:33;16.60;;;10.80;;
70455;SDS011;57916;51.996;5.180;2023-03-01T01:28:01;14.65;;;10.85;;
70455;SDS011;57916;51.996;5.180;2023-03-01T01:30:28;16.67;;;11.35;;
70455;SDS011;57916;51.996;5.180;2023-03-01T01:32:55;16.85;;;10.80;;
70455;SDS011;57916;51.996;5.180;2023-03-01T01:35:22;21.48;;;10.77;;
70455;SDS011;57916;51.996;5.180;2023-03-01T01:37:49;17.83;;;11.07;;
70455;SDS011;57916;51.996;5.180;2023-03-01T01:40:16;17.05;;;10.68;;
70455;SDS011;57916;51.996;5.180;2023-03-01T01:42:43;12.10;;;10.10;;
70455;SDS011;57916;51.996;5.180;2023-03-01T01:45:30;14.98;;;11.00;;
70455;SDS011;57916;51.996;5.180;2023-03-01T01:48:06;17.60;;;11.07;;
70455;SDS011;57916;51.996;5.180;2023-03-01T01:50:39;16.45;;;11.57;;
70455;SDS011;57916;51.996;5.180;2023-03-01T01:53:17;15.95;;;11.38;;
70455;SDS011;57916;51.996;5.180;2023-03-01T01:55:47;20.10;;;11.63;;
70455;SDS011;57916;51.996;5.180;2023-03-01T01:58:19;18.93;;;11.50;;
70455;SDS011;57916;51.996;5.180;2023-03-01T02:00:48;18.83;;;12.00;;
70455;SDS011;57916;51.996;5.180;2023-03-01T02:03:18;16.85;;;11.57;;
70455;SDS011;57916;51.996;5.180;2023-03-01T02:06:00;16.70;;;11.88;;
70455;SDS011;57916;51.996;5.180;2023-03-01T02:08:31;18.85;;;12.88;;
70455;SDS011;57916;51.996;5.180;2023-03-01T02:11:03;20.20;;;12.73;;
70455;SDS011;57916;51.996;5.180;2023-03-01T02:13:31;19.98;;;13.05;;
70455;SDS011;57916;51.996;5.180;2023-03-01T02:16:02;18.55;;;12.43;;
70455;SDS011;57916;51.996;5.180;2023-03-01T02:18:31;20.50;;;13.05;;
70455;SDS011;57916;51.996;5.180;2023-03-01T02:23:31;18.30;;;12.48;;
70455;SDS011;57916;51.996;5.180;2023-03-01T02:28:42;20.13;;;12.15;;
70455;SDS011;57916;51.996;5.180;2023-03-01T02:31:10;23.40;;;11.55;;
70455;SDS011;57916;51.996;5.180;2023-03-01T02:34:01;16.17;;;11.95;;
70455;SDS011;57916;51.996;5.180;2023-03-01T02:36:37;20.13;;;11.68;;
70455;SDS011;57916;51.996;5.180;2023-03-01T02:39:17;17.92;;;12.00;;
70455;SDS011;57916;51.996;5.180;2023-03-01T02:41:49;17.13;;;12.18;;
70455;SDS011;57916;51.996;5.180;2023-03-01T02:44:19;17.20;;;11.93;;
70455;SDS011;57916;51.996;5.180;2023-03-01T02:46:48;18.23;;;12.65;;
70455;SDS011;57916;51.996;5.180;2023-03-01T02:49:21;18.15;;;12.35;;
70455;SDS011;57916;51.996;5.180;2023-03-01T02:51:56;16.77;;;12.53;;
70455;SDS011;57916;51.996;5.180;2023-03-01T02:54:41;19.55;;;12.80;;
70455;SDS011;57916;51.996;5.180;2023-03-01T02:57:17;18.15;;;12.45;;
70455;SDS011;57916;51.996;5.180;2023-03-01T02:59:46;21.92;;;13.15;;
70455;SDS011;57916;51.996;5.180;2023-03-01T03:02:32;21.13;;;13.00;;
70455;SDS011;57916;51.996;5.180;2023-03-01T03:05:23;18.67;;;12.30;;
70455;SDS011;57916;51.996;5.180;2023-03-01T03:07:55;19.65;;;12.73;;
70455;SDS011;57916;51.996;5.180;2023-03-01T03:10:24;21.93;;;12.43;;
70455;SDS011;57916;51.996;5.180;2023-03-01T03:12:57;21.83;;;13.73;;
70455;SDS011;57916;51.996;5.180;2023-03-01T03:15:26;20.33;;;12.60;;
70455;SDS011;57916;51.996;5.180;2023-03-01T03:17:54;19.98;;;12.13;;
70455;SDS011;57916;51.996;5.180;2023-03-01T03:20:23;18.85;;;12.68;;
70455;SDS011;57916;51.996;5.180;2023-03-01T03:22:53;19.53;;;13.03;;
70455;SDS011;57916;51.996;5.180;2023-03-01T03:25:21;18.40;;;12.93;;
70455;SDS011;57916;51.996;5.180;2023-03-01T03:27:49;24.60;;;13.17;;
70455;SDS011;57916;51.996;5.180;2023-03-01T03:30:30;21.38;;;13.23;;
70455;SDS011;57916;51.996;5.180;2023-03-01T03:32:58;18.95;;;12.60;;
70455;SDS011;57916;51.996;5.180;2023-03-01T03:35:26;18.77;;;12.65;;
70455;SDS011;57916;51.996;5.180;2023-03-01T03:38:14;21.40;;;13.32;;
70455;SDS011;57916;51.996;5.180;2023-03-01T03:40:44;20.08;;;13.10;;
70455;SDS011;57916;51.996;5.180;2023-03-01T03:43:14;20.35;;;12.30;;
70455;SDS011;57916;51.996;5.180;2023-03-01T03:45:46;17.48;;;12.00;;
70455;SDS011;57916;51.996;5.180;2023-03-01T03:48:14;18.67;;;11.48;;
70455;SDS011;57916;51.996;5.180;2023-03-01T03:50:46;19.13;;;12.73;;
70455;SDS011;57916;51.996;5.180;2023-03-01T03:53:15;18.77;;;12.93;;
70455;SDS011;57916;51.996;5.180;2023-03-01T03:55:42;18.48;;;11.93;;
70455;SDS011;57916;51.996;5.180;2023-03-01T03:58:11;20.45;;;12.80;;
70455;SDS011;57916;51.996;5.180;2023-03-01T04:00:39;22.67;;;12.88;;
70455;SDS011;57916;51.996;5.180;2023-03-01T04:03:08;19.83;;;13.32;;
70455;SDS011;57916;51.996;5.180;2023-03-01T04:05:37;22.13;;;13.00;;
70455;SDS011;57916;51.996;5.180;2023-03-01T04:08:04;18.97;;;13.07;;
70455;SDS011;57916;51.996;5.180;2023-03-01T04:10:36;19.10;;;13.57;;
70455;SDS011;57916;51.996;5.180;2023-03-01T04:13:05;19.13;;;13.25;;
70455;SDS011;57916;51.996;5.180;2023-03-01T04:15:33;18.60;;;12.90;;
70455;SDS011;57916;51.996;5.180;2023-03-01T04:18:01;18.90;;;12.97;;
70455;SDS011;57916;51.996;5.180;2023-03-01T04:20:28;16.80;;;12.48;;
70455;SDS011;57916;51.996;5.180;2023-03-01T04:22:58;18.63;;;12.80;;
70455;SDS011;57916;51.996;5.180;2023-03-01T04:25:51;16.95;;;12.30;;
70455;SDS011;57916;51.996;5.180;2023-03-01T04:28:26;19.83;;;13.02;;
70455;SDS011;57916;51.996;5.180;2023-03-01T04:30:56;19.55;;;12.75;;
70455;SDS011;57916;51.996;5.180;2023-03-01T04:33:25;17.50;;;12.60;;
70455;SDS011;57916;51.996;5.180;2023-03-01T04:35:52;19.97;;;13.73;;
70455;SDS011;57916;51.996;5.180;2023-03-01T04:38:19;20.50;;;13.03;;
70455;SDS011;57916;51.996;5.180;2023-03-01T04:40:47;19.60;;;12.40;;
70455;SDS011;57916;51.996;5.180;2023-03-01T04:43:14;18.77;;;12.57;;
70455;SDS011;57916;51.996;5.180;2023-03-01T04:45:41;19.63;;;13.07;;
70455;SDS011;57916;51.996;5.180;2023-03-01T04:48:09;17.85;;;12.60;;
70455;SDS011;57916;51.996;5.180;2023-03-01T04:50:36;19.23;;;12.60;;
70455;SDS011;57916;51.996;5.180;2023-03-01T04:53:03;20.40;;;12.50;;
70455;SDS011;57916;51.996;5.180;2023-03-01T04:55:30;19.10;;;12.30;;
70455;SDS011;57916;51.996;5.180;2023-03-01T04:57:57;21.40;;;12.02;;
70455;SDS011;57916;51.996;5.180;2023-03-01T05:00:25;16.63;;;11.63;;
70455;SDS011;57916;51.996;5.180;2023-03-01T05:02:56;17.50;;;12.05;;
70455;SDS011;57916;51.996;5.180;2023-03-01T05:05:35;18.80;;;11.38;;
70455;SDS011;57916;51.996;5.180;2023-03-01T05:08:05;18.40;;;11.95;;
70455;SDS011;57916;51.996;5.180;2023-03-01T05:10:34;19.63;;;11.95;;
70455;SDS011;57916;51.996;5.180;2023-03-01T05:13:02;18.02;;;12.10;;
70455;SDS011;57916;51.996;5.180;2023-03-01T05:15:30;17.67;;;11.60;;
70455;SDS011;57916;51.996;5.180;2023-03-01T05:17:58;19.55;;;12.43;;
70455;SDS011;57916;51.996;5.180;2023-03-01T05:20:26;18.55;;;12.32;;
70455;SDS011;57916;51.996;5.180;2023-03-01T05:22:55;16.95;;;11.82;;
70455;SDS011;57916;51.996;5.180;2023-03-01T05:25:25;17.95;;;12.38;;
70455;SDS011;57916;51.996;5.180;2023-03-01T05:27:52;21.08;;;12.15;;
70455;SDS011;57916;51.996;5.180;2023-03-01T05:30:19;17.50;;;11.83;;
70455;SDS011;57916;51.996;5.180;2023-03-01T05:32:48;17.83;;;11.82;;
70455;SDS011;57916;51.996;5.180;2023-03-01T05:35:22;21.98;;;11.98;;
70455;SDS011;57916;51.996;5.180;2023-03-01T05:37:49;19.08;;;12.15;;
70455;SDS011;57916;51.996;5.180;2023-03-01T05:40:17;15.95;;;11.20;;
70455;SDS011;57916;51.996;5.180;2023-03-01T05:42:47;17.85;;;11.43;;
70455;SDS011;57916;51.996;5.180;2023-03-01T05:45:16;20.25;;;11.85;;
70455;SDS011;57916;51.996;5.180;2023-03-01T05:47:44;17.15;;;11.18;;
70455;SDS011;57916;51.996;5.180;2023-03-01T05:50:13;17.13;;;11.20;;
70455;SDS011;57916;51.996;5.180;2023-03-01T05:52:46;16.43;;;11.20;;
70455;SDS011;57916;51.996;5.180;2023-03-01T05:55:18;21.95;;;11.20;;
70455;SDS011;57916;51.996;5.180;2023-03-01T05:57:47;20.42;;;11.57;;
70455;SDS011;57916;51.996;5.180;2023-03-01T06:00:14;18.27;;;11.10;;
70455;SDS011;57916;51.996;5.180;2023-03-01T06:02:43;20.30;;;11.00;;
70455;SDS011;57916;51.996;5.180;2023-03-01T06:05:10;14.27;;;10.52;;
70455;SDS011;57916;51.996;5.180;2023-03-01T06:07:39;17.15;;;10.25;;
70455;SDS011;57916;51.996;5.180;2023-03-01T06:10:07;17.77;;;10.70;;
70455;SDS011;57916;51.996;5.180;2023-03-01T06:12:36;17.55;;;11.05;;
70455;SDS011;57916;51.996;5.180;2023-03-01T06:15:04;17.15;;;11.20;;
70455;SDS011;57916;51.996;5.180;2023-03-01T06:17:32;15.05;;;10.55;;
70455;SDS011;57916;51.996;5.180;2023-03-01T06:20:05;17.08;;;10.90;;
70455;SDS011;57916;51.996;5.180;2023-03-01T06:22:37;18.08;;;10.68;;
70455;SDS011;57916;51.996;5.180;2023-03-01T06:25:05;16.92;;;10.70;;
70455;SDS011;57916;51.996;5.180;2023-03-01T06:27:32;16.58;;;10.00;;
70455;SDS011;57916;51.996;5.180;2023-03-01T06:29:59;14.55;;;10.38;;
70455;SDS011;57916;51.996;5.180;2023-03-01T06:32:26;14.60;;;9.70;;
70455;SDS011;57916;51.996;5.180;2023-03-01T06:34:53;17.92;;;10.15;;
70455;SDS011;57916;51.996;5.180;2023-03-01T06:37:20;17.58;;;10.70;;
70455;SDS011;57916;51.996;5.180;2023-03-01T06:39:47;17.65;;;10.35;;
70455;SDS011;57916;51.996;5.180;2023-03-01T06:42:14;16.27;;;11.10;;
70455;SDS011;57916;51.996;5.180;2023-03-01T06:44:41;25.50;;;10.98;;
70455;SDS011;57916;51.996;5.180;2023-03-01T06:47:08;28.50;;;11.55;;
70455;SDS011;57916;51.996;5.180;2023-03-01T06:49:35;30.77;;;10.80;;
70455;SDS011;57916;51.996;5.180;2023-03-01T06:52:02;17.05;;;9.95;;
70455;SDS011;57916;51.996;5.180;2023-03-01T06:54:29;27.98;;;11.73;;
70455;SDS011;57916;51.996;5.180;2023-03-01T06:56:56;29.10;;;10.83;;
70455;SDS011;57916;51.996;5.180;2023-03-01T06:59:23;23.83;;;10.90;;
70455;SDS011;57916;51.996;5.180;2023-03-01T07:01:50;29.38;;;11.13;;
70455;SDS011;57916;51.996;5.180;2023-03-01T07:04:17;26.83;;;11.15;;
70455;SDS011;57916;51.996;5.180;2023-03-01T07:06:43;24.40;;;11.30;;
70455;SDS011;57916;51.996;5.180;2023-03-01T07:09:10;29.23;;;11.30;;
70455;SDS011;57916;51.996;5.180;2023-03-01T07:11:37;27.35;;;11.07;;
70455;SDS011;57916;51.996;5.180;2023-03-01T07:14:04;25.73;;;10.88;;
70455;SDS011;57916;51.996;5.180;2023-03-01T07:16:32;31.08;;;11.50;;
70455;SDS011;57916;51.996;5.180;2023-03-01T07:18:59;29.17;;;11.25;;
70455;SDS011;57916;51.996;5.180;2023-03-01T07:21:26;27.60;;;11.32;;
70455;SDS011;57916;51.996;5.180;2023-03-01T07:23:53;31.27;;;11.55;;
70455;SDS011;57916;51.996;5.180;2023-03-01T07:26:20;28.85;;;11.48;;
70455;SDS011;57916;51.996;5.180;2023-03-01T07:28:50;17.73;;;9.75;;
70455;SDS011;57916;51.996;5.180;2023-03-01T07:31:17;18.45;;;9.25;;
70455;SDS011;57916;51.996;5.180;2023-03-01T07:33:43;11.57;;;8.27;;
70455;SDS011;57916;51.996;5.180;2023-03-01T07:36:13;14.02;;;8.73;;
70455;SDS011;57916;51.996;5.180;2023-03-01T07:38:40;17.08;;;8.43;;
70455;SDS011;57916;51.996;5.180;2023-03-01T07:41:07;13.40;;;8.77;;
70455;SDS011;57916;51.996;5.180;2023-03-01T07:43:34;22.92;;;8.48;;
70455;SDS011;57916;51.996;5.180;2023-03-01T07:46:02;17.30;;;8.25;;
70455;SDS011;57916;51.996;5.180;2023-03-01T07:48:30;25.02;;;8.15;;
70455;SDS011;57916;51.996;5.180;2023-03-01T07:50:58;19.33;;;7.95;;
70455;SDS011;57916;51.996;5.180;2023-03-01T07:53:29;16.50;;;7.65;;
70455;SDS011;57916;51.996;5.180;2023-03-01T07:56:05;15.35;;;8.35;;
70455;SDS011;57916;51.996;5.180;2023-03-01T07:58:38;13.43;;;7.82;;
70455;SDS011;57916;51.996;5.180;2023-03-01T08:01:06;13.35;;;7.80;;
70455;SDS011;57916;51.996;5.180;2023-03-01T08:03:35;11.70;;;7.30;;
70455;SDS011;57916;51.996;5.180;2023-03-01T08:06:04;9.48;;;7.13;;
70455;SDS011;57916;51.996;5.180;2023-03-01T08:08:33;10.27;;;6.68;;
70455;SDS011;57916;51.996;5.180;2023-03-01T08:11:01;9.27;;;6.78;;
70455;SDS011;57916;51.996;5.180;2023-03-01T08:13:30;9.05;;;7.07;;
70455;SDS011;57916;51.996;5.180;2023-03-01T08:16:01;9.85;;;6.85;;
70455;SDS011;57916;51.996;5.180;2023-03-01T08:18:29;9.82;;;7.38;;
70455;SDS011;57916;51.996;5.180;2023-03-01T08:21:01;11.63;;;7.05;;
70455;SDS011;57916;51.996;5.180;2023-03-01T08:23:31;10.87;;;7.07;;
70455;SDS011;57916;51.996;5.180;2023-03-01T08:26:06;9.68;;;6.90;;
70455;SDS011;57916;51.996;5.180;2023-03-01T08:28:35;9.23;;;6.50;;
70455;SDS011;57916;51.996;5.180;2023-03-01T08:31:03;6.80;;;5.93;;
70455;SDS011;57916;51.996;5.180;2023-03-01T08:33:39;8.73;;;6.90;;
70455;SDS011;57916;51.996;5.180;2023-03-01T08:36:06;10.07;;;6.63;;
70455;SDS011;57916;51.996;5.180;2023-03-01T08:38:34;8.57;;;5.70;;
70455;SDS011;57916;51.996;5.180;2023-03-01T08:41:02;9.60;;;6.00;;
70455;SDS011;57916;51.996;5.180;2023-03-01T08:43:29;8.63;;;6.93;;
70455;SDS011;57916;51.996;5.180;2023-03-01T08:45:56;8.60;;;6.07;;
70455;SDS011;57916;51.996;5.180;2023-03-01T08:48:24;9.85;;;6.53;;
70455;SDS011;57916;51.996;5.180;2023-03-01T08:50:51;7.75;;;6.18;;
70455;SDS011;57916;51.996;5.180;2023-03-01T08:53:18;8.93;;;5.97;;
70455;SDS011;57916;51.996;5.180;2023-03-01T08:55:45;8.00;;;5.55;;
70455;SDS011;57916;51.996;5.180;2023-03-01T08:58:13;6.90;;;5.47;;
70455;SDS011;57916;51.996;5.180;2023-03-01T09:00:40;6.00;;;5.40;;
70455;SDS011;57916;51.996;5.180;2023-03-01T09:03:07;7.13;;;5.28;;
70455;SDS011;57916;51.996;5.180;2023-03-01T09:05:34;6.93;;;4.50;;
70455;SDS011;57916;51.996;5.180;2023-03-01T09:08:02;4.93;;;3.42;;
70455;SDS011;57916;51.996;5.180;2023-03-01T09:10:29;4.88;;;4.32;;
70455;SDS011;57916;51.996;5.180;2023-03-01T09:12:56;5.38;;;4.63;;
70455;SDS011;57916;51.996;5.180;2023-03-01T09:15:23;8.63;;;5.70;;
70455;SDS011;57916;51.996;5.180;2023-03-01T09:17:50;5.13;;;3.85;;
70455;SDS011;57916;51.996;5.180;2023-03-01T09:20:18;6.17;;;4.73;;
70455;SDS011;57916;51.996;5.180;2023-03-01T09:22:44;5.13;;;4.18;;
70455;SDS011;57916;51.996;5.180;2023-03-01T09:25:11;5.45;;;4.80;;
70455;SDS011;57916;51.996;5.180;2023-03-01T09:27:38;6.50;;;5.70;;
70455;SDS011;57916;51.996;5.180;2023-03-01T09:30:07;4.95;;;3.55;;
70455;SDS011;57916;51.996;5.180;2023-03-01T09:32:34;3.90;;;3.53;;
70455;SDS011;57916;51.996;5.180;2023-03-01T09:35:02;6.68;;;4.90;;
70455;SDS011;57916;51.996;5.180;2023-03-01T09:37:32;7.18;;;4.38;;
70455;SDS011;57916;51.996;5.180;2023-03-01T09:40:00;4.50;;;3.00;;
70455;SDS011;57916;51.996;5.180;2023-03-01T09:42:29;3.28;;;2.38;;
70455;SDS011;57916;51.996;5.180;2023-03-01T09:45:06;3.35;;;2.08;;
70455;SDS011;57916;51.996;5.180;2023-03-01T09:47:47;3.33;;;3.03;;
70455;SDS011;57916;51.996;5.180;2023-03-01T09:50:16;6.13;;;3.88;;
70455;SDS011;57916;51.996;5.180;2023-03-01T09:53:01;3.92;;;3.53;;
70455;SDS011;57916;51.996;5.180;2023-03-01T09:55:42;2.80;;;2.60;;
70455;SDS011;57916;51.996;5.180;2023-03-01T10:01:11;2.55;;;1.70;;
70455;SDS011;57916;51.996;5.180;2023-03-01T10:04:06;3.22;;;2.97;;
70455;SDS011;57916;51.996;5.180;2023-03-01T10:09:39;3.08;;;2.47;;
70455;SDS011;57916;51.996;5.180;2023-03-01T10:12:13;2.38;;;2.17;;
70455;SDS011;57916;51.996;5.180;2023-03-01T10:17:43;5.53;;;3.60;;
70455;SDS011;57916;51.996;5.180;2023-03-01T10:22:50;4.22;;;2.20;;
70455;SDS011;57916;51.996;5.180;2023-03-01T10:25:36;4.45;;;3.60;;
70455;SDS011;57916;51.996;5.180;2023-03-01T10:30:56;2.00;;;1.40;;
70455;SDS011;57916;51.996;5.180;2023-03-01T10:33:26;4.13;;;3.72;;
70455;SDS011;57916;51.996;5.180;2023-03-01T10:35:57;2.00;;;1.80;;
70455;SDS011;57916;51.996;5.180;2023-03-01T10:38:24;2.73;;;1.67;;
70455;SDS011;57916;51.996;5.180;2023-03-01T10:40:58;2.17;;;1.98;;
70455;SDS011;57916;51.996;5.180;2023-03-01T10:43:45;4.07;;;3.33;;
70455;SDS011;57916;51.996;5.180;2023-03-01T10:46:33;1.95;;;1.75;;
70455;SDS011;57916;51.996;5.180;2023-03-01T10:51:50;2.60;;;2.35;;
70455;SDS011;57916;51.996;5.180;2023-03-01T10:54:22;1.53;;;1.43;;
70455;SDS011;57916;51.996;5.180;2023-03-01T10:56:55;3.78;;;2.10;;
70455;SDS011;57916;51.996;5.180;2023-03-01T10:59:28;3.08;;;2.25;;
70455;SDS011;57916;51.996;5.180;2023-03-01T11:04:46;2.97;;;2.75;;
70455;SDS011;57916;51.996;5.180;2023-03-01T11:07:49;2.90;;;2.65;;
70455;SDS011;57916;51.996;5.180;2023-03-01T11:10:17;3.45;;;2.47;;
70455;SDS011;57916;51.996;5.180;2023-03-01T11:12:50;6.32;;;2.83;;
70455;SDS011;57916;51.996;5.180;2023-03-01T11:15:26;5.10;;;3.28;;
70455;SDS011;57916;51.996;5.180;2023-03-01T11:17:54;3.17;;;2.87;;
70455;SDS011;57916;51.996;5.180;2023-03-01T11:20:35;4.45;;;3.85;;
70455;SDS011;57916;51.996;5.180;2023-03-01T11:23:04;4.60;;;3.63;;
70455;SDS011;57916;51.996;5.180;2023-03-01T11:25:37;1.85;;;1.75;;
70455;SDS011;57916;51.996;5.180;2023-03-01T11:28:11;3.75;;;3.38;;
70455;SDS011;57916;51.996;5.180;2023-03-01T11:30:49;1.80;;;1.58;;
70455;SDS011;57916;51.996;5.180;2023-03-01T11:33:41;1.90;;;1.80;;
70455;SDS011;57916;51.996;5.180;2023-03-01T11:36:35;2.78;;;1.75;;
70455;SDS011;57916;51.996;5.180;2023-03-01T11:41:59;2.10;;;1.77;;
70455;SDS011;57916;51.996;5.180;2023-03-01T11:44:43;1.80;;;1.60;;
70455;SDS011;57916;51.996;5.180;2023-03-01T11:50:20;2.13;;;1.98;;
70455;SDS011;57916;51.996;5.180;2023-03-01T11:53:06;2.13;;;1.98;;
70455;SDS011;57916;51.996;5.180;2023-03-01T11:55:48;3.00;;;2.17;;
70455;SDS011;57916;51.996;5.180;2023-03-01T12:01:51;3.30;;;3.00;;
70455;SDS011;57916;51.996;5.180;2023-03-01T12:05:04;1.40;;;1.30;;
70455;SDS011;57916;51.996;5.180;2023-03-01T12:13:49;4.00;;;2.47;;
70455;SDS011;57916;51.996;5.180;2023-03-01T12:19:37;3.53;;;2.03;;
70455;SDS011;57916;51.996;5.180;2023-03-01T12:22:30;2.80;;;2.50;;
70455;SDS011;57916;51.996;5.180;2023-03-01T12:25:16;2.75;;;2.55;;
70455;SDS011;57916;51.996;5.180;2023-03-01T12:38:41;1.67;;;1.50;;
70455;SDS011;57916;51.996;5.180;2023-03-01T12:47:05;2.65;;;1.85;;
70455;SDS011;57916;51.996;5.180;2023-03-01T12:49:57;2.40;;;2.22;;
70455;SDS011;57916;51.996;5.180;2023-03-01T12:52:43;2.30;;;1.70;;
70455;SDS011;57916;51.996;5.180;2023-03-01T12:58:10;3.45;;;3.15;;
70455;SDS011;57916;51.996;5.180;2023-03-01T13:01:16;3.70;;;2.87;;
70455;SDS011;57916;51.996;5.180;2023-03-01T13:12:52;3.58;;;3.28;;
70455;SDS011;57916;51.996;5.180;2023-03-01T13:17:50;1.67;;;1.58;;
70455;SDS011;57916;51.996;5.180;2023-03-01T13:33:49;4.63;;;2.97;;
70455;SDS011;57916;51.996;5.180;2023-03-01T13:38:56;2.08;;;1.63;;
70455;SDS011;57916;51.996;5.180;2023-03-01T13:47:12;5.90;;;3.88;;
70455;SDS011;57916;51.996;5.180;2023-03-01T13:49:46;2.97;;;2.67;;
70455;SDS011;57916;51.996;5.180;2023-03-01T13:57:51;2.25;;;2.10;;
70455;SDS011;57916;51.996;5.180;2023-03-01T14:05:34;2.90;;;1.83;;
70455;SDS011;57916;51.996;5.180;2023-03-01T14:08:03;4.20;;;3.35;;
70455;SDS011;57916;51.996;5.180;2023-03-01T14:10:34;4.10;;;3.42;;
70455;SDS011;57916;51.996;5.180;2023-03-01T14:13:25;2.65;;;2.45;;
70455;SDS011;57916;51.996;5.180;2023-03-01T14:19:18;3.38;;;2.17;;
70455;SDS011;57916;51.996;5.180;2023-03-01T14:24:40;3.30;;;2.40;;
70455;SDS011;57916;51.996;5.180;2023-03-01T14:27:12;2.50;;;2.05;;
70455;SDS011;57916;51.996;5.180;2023-03-01T14:29:40;3.30;;;1.73;;
70455;SDS011;57916;51.996;5.180;2023-03-01T14:32:11;1.67;;;1.58;;
70455;SDS011;57916;51.996;5.180;2023-03-01T14:34:46;2.38;;;1.88;;
70455;SDS011;57916;51.996;5.180;2023-03-01T14:39:50;1.85;;;1.73;;
70455;SDS011;57916;51.996;5.180;2023-03-01T14:42:18;3.83;;;3.15;;
70455;SDS011;57916;51.996;5.180;2023-03-01T14:44:48;1.87;;;1.77;;
70455;SDS011;57916;51.996;5.180;2023-03-01T14:47:27;2.42;;;1.88;;
70455;SDS011;57916;51.996;5.180;2023-03-01T14:50:07;3.88;;;3.15;;
70455;SDS011;57916;51.996;5.180;2023-03-01T14:52:41;2.28;;;2.05;;
70455;SDS011;57916;51.996;5.180;2023-03-01T14:55:21;2.35;;;2.17;;
70455;SDS011;57916;51.996;5.180;2023-03-01T14:58:02;2.63;;;2.08;;
70455;SDS011;57916;51.996;5.180;2023-03-01T15:00:37;1.80;;;1.50;;
70455;SDS011;57916;51.996;5.180;2023-03-01T15:03:11;2.38;;;1.52;;
70455;SDS011;57916;51.996;5.180;2023-03-01T15:05:43;4.07;;;3.50;;
70455;SDS011;57916;51.996;5.180;2023-03-01T15:08:17;3.20;;;2.92;;
70455;SDS011;57916;51.996;5.180;2023-03-01T15:10:57;6.47;;;3.30;;
70455;SDS011;57916;51.996;5.180;2023-03-01T15:13:39;3.90;;;3.25;;
70455;SDS011;57916;51.996;5.180;2023-03-01T15:16:08;2.73;;;2.20;;
70455;SDS011;57916;51.996;5.180;2023-03-01T15:18:43;3.67;;;1.77;;
70455;SDS011;57916;51.996;5.180;2023-03-01T15:21:27;2.17;;;1.98;;
70455;SDS011;57916;51.996;5.180;2023-03-01T15:26:41;3.08;;;2.85;;
70455;SDS011;57916;51.996;5.180;2023-03-01T15:29:15;3.92;;;3.00;;
70455;SDS011;57916;51.996;5.180;2023-03-01T15:31:53;3.22;;;2.88;;
70455;SDS011;57916;51.996;5.180;2023-03-01T15:34:24;3.67;;;2.88;;
70455;SDS011;57916;51.996;5.180;2023-03-01T15:36:54;2.40;;;2.20;;
70455;SDS011;57916;51.996;5.180;2023-03-01T15:39:32;4.63;;;2.08;;
70455;SDS011;57916;51.996;5.180;2023-03-01T15:42:13;2.63;;;2.03;;
70455;SDS011;57916;51.996;5.180;2023-03-01T15:45:07;2.50;;;2.30;;
70455;SDS011;57916;51.996;5.180;2023-03-01T15:47:38;2.10;;;2.00;;
70455;SDS011;57916;51.996;5.180;2023-03-01T15:50:17;2.72;;;2.40;;
70455;SDS011;57916;51.996;5.180;2023-03-01T15:52:49;2.00;;;1.83;;
70455;SDS011;57916;51.996;5.180;2023-03-01T15:55:27;2.20;;;1.88;;
70455;SDS011;57916;51.996;5.180;2023-03-01T15:58:00;1.85;;;1.55;;
70455;SDS011;57916;51.996;5.180;2023-03-01T16:00:27;2.47;;;1.90;;
70455;SDS011;57916;51.996;5.180;2023-03-01T16:02:55;3.10;;;2.60;;
70455;SDS011;57916;51.996;5.180;2023-03-01T16:05:29;4.07;;;3.00;;
70455;SDS011;57916;51.996;5.180;2023-03-01T16:07:58;3.60;;;3.05;;
70455;SDS011;57916;51.996;5.180;2023-03-01T16:10:26;2.95;;;2.58;;
70455;SDS011;57916;51.996;5.180;2023-03-01T16:12:54;5.18;;;2.95;;
70455;SDS011;57916;51.996;5.180;2023-03-01T16:15:25;8.02;;;2.50;;
70455;SDS011;57916;51.996;5.180;2023-03-01T16:17:57;6.75;;;2.97;;
70455;SDS011;57916;51.996;5.180;2023-03-01T16:20:25;3.67;;;3.38;;
70455;SDS011;57916;51.996;5.180;2023-03-01T16:23:00;3.42;;;3.13;;
70455;SDS011;57916;51.996;5.180;2023-03-01T16:25:28;4.07;;;3.45;;
70455;SDS011;57916;51.996;5.180;2023-03-01T16:27:56;3.47;;;2.47;;
70455;SDS011;57916;51.996;5.180;2023-03-01T16:30:24;3.55;;;2.15;;
70455;SDS011;57916;51.996;5.180;2023-03-01T16:32:51;1.63;;;1.52;;
70455;SDS011;57916;51.996;5.180;2023-03-01T16:35:20;2.05;;;1.95;;
70455;SDS011;57916;51.996;5.180;2023-03-01T16:37:48;4.78;;;3.25;;
70455;SDS011;57916;51.996;5.180;2023-03-01T16:40:16;3.95;;;2.33;;
70455;SDS011;57916;51.996;5.180;2023-03-01T16:42:48;2.97;;;2.65;;
70455;SDS011;57916;51.996;5.180;2023-03-01T16:45:16;3.90;;;3.50;;
70455;SDS011;57916;51.996;5.180;2023-03-01T16:47:50;3.60;;;3.00;;
70455;SDS011;57916;51.996;5.180;2023-03-01T16:50:21;4.88;;;3.33;;
70455;SDS011;57916;51.996;5.180;2023-03-01T16:52:49;4.15;;;3.42;;
70455;SDS011;57916;51.996;5.180;2023-03-01T16:55:16;4.57;;;3.78;;
70455;SDS011;57916;51.996;5.180;2023-03-01T16:57:43;5.40;;;3.25;;
70455;SDS011;57916;51.996;5.180;2023-03-01T17:00:10;7.30;;;3.92;;